sensor_id;sensor_type;location;lat;lon;timestamp;P1;durP1;ratioP1;P2;durP2;ratioP2
44218;SDS011;29889;52.034;5.570;2023-02-28T00:00:07;6.22;;;3.70;;
44218;SDS011;29889;52.034;5.570;2023-02-28T00:00:39;5.15;;;2.85;;
44218;SDS011;29889;52.034;5.570;2023-02-28T00:01:11;4.70;;;2.97;;
44218;SDS011;29889;52.034;5.570;2023-02-28T00:01:42;4.47;;;3.20;;
44218;SDS011;29889;52.034;5.570;2023-02-28T00:02:13;5.63;;;3.22;;
44218;SDS011;29889;52.034;5.570;2023-02-28T00:02:47;6.32;;;3.40;;
44218;SDS011;29889;52.034;5.570;2023-02-28T00:03:18;4.22;;;2.60;;
44218;SDS011;29889;52.034;5.570;2023-02-28T00:03:49;4.93;;;2.90;;
44218;SDS011;29889;52.034;5.570;2023-02-28T00:04:20;4.57;;;2.97;;
44218;SDS011;29889;52.034;5.570;2023-02-28T00:04:51;3.95;;;3.03;;
44218;SDS011;29889;52.034;5.570;2023-02-28T00:05:31;4.72;;;3.00;;
44218;SDS011;29889;52.034;5.570;2023-02-28T00:06:02;4.63;;;2.88;;
44218;SDS011;29889;52.034;5.570;2023-02-28T00:06:34;4.50;;;2.83;;
44218;SDS011;29889;52.034;5.570;2023-02-28T00:07:05;4.63;;;2.90;;
44218;SDS011;29889;52.034;5.570;2023-02-28T00:07:36;5.20;;;2.92;;
44218;SDS011;29889;52.034;5.570;2023-02-28T00:08:07;4.40;;;2.85;;
44218;SDS011;29889;52.034;5.570;2023-02-28T00:08:38;4.63;;;2.40;;
44218;SDS011;29889;52.034;5.570;2023-02-28T00:09:09;3.63;;;2.60;;
44218;SDS011;29889;52.034;5.570;2023-02-28T00:09:40;3.83;;;2.60;;
44218;SDS011;29889;52.034;5.570;2023-02-28T00:10:13;4.50;;;3.00;;
44218;SDS011;29889;52.034;5.570;2023-02-28T00:10:44;5.15;;;2.60;;
44218;SDS011;29889;52.034;5.570;2023-02-28T00:11:15;3.83;;;2.97;;
44218;SDS011;29889;52.034;5.570;2023-02-28T00:11:46;3.28;;;2.53;;
44218;SDS011;29889;52.034;5.570;2023-02-28T00:12:17;4.25;;;2.88;;
44218;SDS011;29889;52.034;5.570;2023-02-28T00:12:48;4.03;;;2.65;;
44218;SDS011;29889;52.034;5.570;2023-02-28T00:13:19;5.22;;;3.00;;
44218;SDS011;29889;52.034;5.570;2023-02-28T00:13:51;4.18;;;2.67;;
44218;SDS011;29889;52.034;5.570;2023-02-28T00:14:22;3.67;;;2.33;;
44218;SDS011;29889;52.034;5.570;2023-02-28T00:14:53;4.88;;;2.80;;
44218;SDS011;29889;52.034;5.570;2023-02-28T00:15:24;4.53;;;2.83;;
44218;SDS011;29889;52.034;5.570;2023-02-28T00:15:59;4.47;;;2.83;;
44218;SDS011;29889;52.034;5.570;2023-02-28T00:16:30;4.25;;;2.65;;
44218;SDS011;29889;52.034;5.570;2023-02-28T00:17:01;4.00;;;2.70;;
44218;SDS011;29889;52.034;5.570;2023-02-28T00:17:32;4.90;;;2.78;;
44218;SDS011;29889;52.034;5.570;2023-02-28T00:18:03;4.85;;;2.58;;
44218;SDS011;29889;52.034;5.570;2023-02-28T00:18:34;4.82;;;2.90;;
44218;SDS011;29889;52.034;5.570;2023-02-28T00:19:05;4.03;;;2.80;;
44218;SDS011;29889;52.034;5.570;2023-02-28T00:19:36;4.20;;;2.88;;
44218;SDS011;29889;52.034;5.570;2023-02-28T00:20:07;4.40;;;2.83;;
44218;SDS011;29889;52.034;5.570;2023-02-28T00:20:41;4.63;;;2.70;;
44218;SDS011;29889;52.034;5.570;2023-02-28T00:21:12;5.20;;;2.60;;
44218;SDS011;29889;52.034;5.570;2023-02-28T00:21:43;3.70;;;2.58;;
44218;SDS011;29889;52.034;5.570;2023-02-28T00:22:15;3.80;;;2.67;;
44218;SDS011;29889;52.034;5.570;2023-02-28T00:22:47;4.07;;;2.40;;
44218;SDS011;29889;52.034;5.570;2023-02-28T00:23:18;4.40;;;2.72;;
44218;SDS011;29889;52.034;5.570;2023-02-28T00:23:49;4.15;;;2.42;;
44218;SDS011;29889;52.034;5.570;2023-02-28T00:24:20;4.88;;;2.88;;
44218;SDS011;29889;52.034;5.570;2023-02-28T00:24:51;3.63;;;2.47;;
44218;SDS011;29889;52.034;5.570;2023-02-28T00:25:24;3.38;;;2.67;;
44218;SDS011;29889;52.034;5.570;2023-02-28T00:25:55;3.83;;;2.53;;
44218;SDS011;29889;52.034;5.570;2023-02-28T00:26:26;3.75;;;2.55;;
44218;SDS011;29889;52.034;5.570;2023-02-28T00:26:57;4.45;;;2.70;;
44218;SDS011;29889;52.034;5.570;2023-02-28T00:27:29;3.78;;;2.47;;
44218;SDS011;29889;52.034;5.570;2023-02-28T00:27:59;4.18;;;3.00;;
44218;SDS011;29889;52.034;5.570;2023-02-28T00:28:31;4.17;;;2.60;;
44218;SDS011;29889;52.034;5.570;2023-02-28T00:29:02;4.13;;;2.65;;
44218;SDS011;29889;52.034;5.570;2023-02-28T00:29:32;3.42;;;2.50;;
44218;SDS011;29889;52.034;5.570;2023-02-28T00:30:04;4.32;;;2.50;;
44218;SDS011;29889;52.034;5.570;2023-02-28T00:30:35;3.28;;;2.50;;
44218;SDS011;29889;52.034;5.570;2023-02-28T00:31:06;3.97;;;2.78;;
44218;SDS011;29889;52.034;5.570;2023-02-28T00:31:37;3.58;;;2.58;;
44218;SDS011;29889;52.034;5.570;2023-02-28T00:32:08;3.75;;;2.40;;
44218;SDS011;29889;52.034;5.570;2023-02-28T00:32:39;5.18;;;3.05;;
44218;SDS011;29889;52.034;5.570;2023-02-28T00:33:11;4.65;;;2.60;;
44218;SDS011;29889;52.034;5.570;2023-02-28T00:33:42;3.63;;;2.75;;
44218;SDS011;29889;52.034;5.570;2023-02-28T00:34:12;2.85;;;2.40;;
44218;SDS011;29889;52.034;5.570;2023-02-28T00:34:43;3.65;;;2.40;;
44218;SDS011;29889;52.034;5.570;2023-02-28T00:35:15;3.63;;;2.08;;
44218;SDS011;29889;52.034;5.570;2023-02-28T00:35:46;4.18;;;2.30;;
44218;SDS011;29889;52.034;5.570;2023-02-28T00:36:18;3.38;;;2.28;;
44218;SDS011;29889;52.034;5.570;2023-02-28T00:36:49;4.50;;;2.83;;
44218;SDS011;29889;52.034;5.570;2023-02-28T00:37:20;2.67;;;2.38;;
44218;SDS011;29889;52.034;5.570;2023-02-28T00:37:51;3.17;;;2.22;;
44218;SDS011;29889;52.034;5.570;2023-02-28T00:38:22;4.30;;;2.33;;
44218;SDS011;29889;52.034;5.570;2023-02-28T00:38:53;3.70;;;2.50;;
44218;SDS011;29889;52.034;5.570;2023-02-28T00:39:24;4.43;;;2.97;;
44218;SDS011;29889;52.034;5.570;2023-02-28T00:39:55;3.75;;;2.20;;
44218;SDS011;29889;52.034;5.570;2023-02-28T00:40:26;5.07;;;2.42;;
44218;SDS011;29889;52.034;5.570;2023-02-28T00:40:57;5.35;;;2.60;;
44218;SDS011;29889;52.034;5.570;2023-02-28T00:41:28;3.30;;;2.30;;
44218;SDS011;29889;52.034;5.570;2023-02-28T00:41:59;3.40;;;2.40;;
44218;SDS011;29889;52.034;5.570;2023-02-28T00:42:30;2.95;;;2.25;;
44218;SDS011;29889;52.034;5.570;2023-02-28T00:43:01;3.97;;;2.10;;
44218;SDS011;29889;52.034;5.570;2023-02-28T00:43:33;3.33;;;2.28;;
44218;SDS011;29889;52.034;5.570;2023-02-28T00:44:05;5.18;;;2.45;;
44218;SDS011;29889;52.034;5.570;2023-02-28T00:44:35;3.40;;;2.17;;
44218;SDS011;29889;52.034;5.570;2023-02-28T00:45:07;2.92;;;1.98;;
44218;SDS011;29889;52.034;5.570;2023-02-28T00:45:38;3.13;;;2.05;;
44218;SDS011;29889;52.034;5.570;2023-02-28T00:46:09;2.83;;;2.15;;
44218;SDS011;29889;52.034;5.570;2023-02-28T00:46:40;4.43;;;2.47;;
44218;SDS011;29889;52.034;5.570;2023-02-28T00:47:11;4.13;;;2.47;;
44218;SDS011;29889;52.034;5.570;2023-02-28T00:47:42;3.42;;;2.15;;
44218;SDS011;29889;52.034;5.570;2023-02-28T00:48:13;4.07;;;2.30;;
44218;SDS011;29889;52.034;5.570;2023-02-28T00:48:44;3.47;;;2.20;;
44218;SDS011;29889;52.034;5.570;2023-02-28T00:49:15;3.38;;;2.25;;
44218;SDS011;29889;52.034;5.570;2023-02-28T00:49:46;4.70;;;2.28;;
44218;SDS011;29889;52.034;5.570;2023-02-28T00:50:20;3.72;;;2.58;;
44218;SDS011;29889;52.034;5.570;2023-02-28T00:50:51;4.80;;;2.40;;
44218;SDS011;29889;52.034;5.570;2023-02-28T00:51:22;3.38;;;2.25;;
44218;SDS011;29889;52.034;5.570;2023-02-28T00:51:53;2.97;;;2.00;;
44218;SDS011;29889;52.034;5.570;2023-02-28T00:52:25;3.45;;;2.15;;
44218;SDS011;29889;52.034;5.570;2023-02-28T00:52:56;3.35;;;1.92;;
44218;SDS011;29889;52.034;5.570;2023-02-28T00:53:27;2.97;;;1.92;;
44218;SDS011;29889;52.034;5.570;2023-02-28T00:53:58;4.75;;;2.60;;
44218;SDS011;29889;52.034;5.570;2023-02-28T00:54:29;3.53;;;2.22;;
44218;SDS011;29889;52.034;5.570;2023-02-28T00:55:00;3.15;;;2.10;;
44218;SDS011;29889;52.034;5.570;2023-02-28T00:55:31;4.30;;;2.45;;
44218;SDS011;29889;52.034;5.570;2023-02-28T00:56:02;3.40;;;2.08;;
44218;SDS011;29889;52.034;5.570;2023-02-28T00:56:33;4.05;;;2.25;;
44218;SDS011;29889;52.034;5.570;2023-02-28T00:57:04;2.85;;;2.00;;
44218;SDS011;29889;52.034;5.570;2023-02-28T00:57:35;4.40;;;2.90;;
44218;SDS011;29889;52.034;5.570;2023-02-28T00:58:06;2.83;;;2.20;;
44218;SDS011;29889;52.034;5.570;2023-02-28T00:58:37;2.90;;;2.17;;
44218;SDS011;29889;52.034;5.570;2023-02-28T00:59:08;3.50;;;2.35;;
44218;SDS011;29889;52.034;5.570;2023-02-28T00:59:39;2.45;;;1.58;;
44218;SDS011;29889;52.034;5.570;2023-02-28T01:00:10;3.03;;;2.10;;
44218;SDS011;29889;52.034;5.570;2023-02-28T01:00:41;3.20;;;2.30;;
44218;SDS011;29889;52.034;5.570;2023-02-28T01:01:12;3.95;;;2.10;;
44218;SDS011;29889;52.034;5.570;2023-02-28T01:01:44;4.10;;;2.05;;
44218;SDS011;29889;52.034;5.570;2023-02-28T01:02:15;3.58;;;2.30;;
44218;SDS011;29889;52.034;5.570;2023-02-28T01:02:47;3.50;;;2.10;;
44218;SDS011;29889;52.034;5.570;2023-02-28T01:03:19;3.40;;;2.03;;
44218;SDS011;29889;52.034;5.570;2023-02-28T01:03:50;4.25;;;2.00;;
44218;SDS011;29889;52.034;5.570;2023-02-28T01:04:21;3.65;;;2.30;;
44218;SDS011;29889;52.034;5.570;2023-02-28T01:04:52;3.45;;;1.98;;
44218;SDS011;29889;52.034;5.570;2023-02-28T01:05:23;4.73;;;2.50;;
44218;SDS011;29889;52.034;5.570;2023-02-28T01:05:54;3.05;;;2.25;;
44218;SDS011;29889;52.034;5.570;2023-02-28T01:06:26;4.80;;;2.17;;
44218;SDS011;29889;52.034;5.570;2023-02-28T01:06:57;2.80;;;1.80;;
44218;SDS011;29889;52.034;5.570;2023-02-28T01:07:28;3.38;;;2.08;;
44218;SDS011;29889;52.034;5.570;2023-02-28T01:07:59;3.38;;;1.95;;
44218;SDS011;29889;52.034;5.570;2023-02-28T01:08:30;4.13;;;1.85;;
44218;SDS011;29889;52.034;5.570;2023-02-28T01:09:01;4.90;;;2.22;;
44218;SDS011;29889;52.034;5.570;2023-02-28T01:09:32;3.10;;;2.05;;
44218;SDS011;29889;52.034;5.570;2023-02-28T01:10:03;4.20;;;2.55;;
44218;SDS011;29889;52.034;5.570;2023-02-28T01:10:34;3.97;;;2.00;;
44218;SDS011;29889;52.034;5.570;2023-02-28T01:11:10;3.38;;;2.20;;
44218;SDS011;29889;52.034;5.570;2023-02-28T01:11:41;3.25;;;2.13;;
44218;SDS011;29889;52.034;5.570;2023-02-28T01:12:13;3.50;;;2.22;;
44218;SDS011;29889;52.034;5.570;2023-02-28T01:12:44;2.75;;;1.88;;
44218;SDS011;29889;52.034;5.570;2023-02-28T01:13:15;4.20;;;2.40;;
44218;SDS011;29889;52.034;5.570;2023-02-28T01:13:47;3.05;;;1.92;;
44218;SDS011;29889;52.034;5.570;2023-02-28T01:14:18;5.00;;;2.17;;
44218;SDS011;29889;52.034;5.570;2023-02-28T01:14:48;2.88;;;1.80;;
44218;SDS011;29889;52.034;5.570;2023-02-28T01:15:19;3.42;;;2.10;;
44218;SDS011;29889;52.034;5.570;2023-02-28T01:15:51;4.50;;;2.22;;
44218;SDS011;29889;52.034;5.570;2023-02-28T01:16:23;2.90;;;2.08;;
44218;SDS011;29889;52.034;5.570;2023-02-28T01:16:54;4.40;;;2.00;;
44218;SDS011;29889;52.034;5.570;2023-02-28T01:17:25;2.90;;;2.08;;
44218;SDS011;29889;52.034;5.570;2023-02-28T01:17:56;3.53;;;2.00;;
44218;SDS011;29889;52.034;5.570;2023-02-28T01:18:27;2.85;;;2.25;;
44218;SDS011;29889;52.034;5.570;2023-02-28T01:18:58;3.30;;;2.42;;
44218;SDS011;29889;52.034;5.570;2023-02-28T01:19:29;3.40;;;2.08;;
44218;SDS011;29889;52.034;5.570;2023-02-28T01:20:00;2.70;;;1.88;;
44218;SDS011;29889;52.034;5.570;2023-02-28T01:20:31;6.22;;;2.47;;
44218;SDS011;29889;52.034;5.570;2023-02-28T01:21:03;3.05;;;2.00;;
44218;SDS011;29889;52.034;5.570;2023-02-28T01:21:34;3.75;;;2.33;;
44218;SDS011;29889;52.034;5.570;2023-02-28T01:22:05;3.92;;;2.30;;
44218;SDS011;29889;52.034;5.570;2023-02-28T01:22:37;4.25;;;2.10;;
44218;SDS011;29889;52.034;5.570;2023-02-28T01:23:08;2.60;;;1.88;;
44218;SDS011;29889;52.034;5.570;2023-02-28T01:23:39;4.35;;;2.15;;
44218;SDS011;29889;52.034;5.570;2023-02-28T01:24:10;3.67;;;2.05;;
44218;SDS011;29889;52.034;5.570;2023-02-28T01:24:41;3.90;;;1.80;;
44218;SDS011;29889;52.034;5.570;2023-02-28T01:25:12;3.67;;;2.17;;
44218;SDS011;29889;52.034;5.570;2023-02-28T01:25:43;3.80;;;2.10;;
44218;SDS011;29889;52.034;5.570;2023-02-28T01:26:15;3.13;;;2.05;;
44218;SDS011;29889;52.034;5.570;2023-02-28T01:26:46;3.17;;;2.05;;
44218;SDS011;29889;52.034;5.570;2023-02-28T01:27:17;4.30;;;2.03;;
44218;SDS011;29889;52.034;5.570;2023-02-28T01:27:48;2.28;;;1.80;;
44218;SDS011;29889;52.034;5.570;2023-02-28T01:28:19;3.40;;;2.22;;
44218;SDS011;29889;52.034;5.570;2023-02-28T01:28:51;2.25;;;1.92;;
44218;SDS011;29889;52.034;5.570;2023-02-28T01:29:22;2.55;;;2.03;;
44218;SDS011;29889;52.034;5.570;2023-02-28T01:29:53;3.20;;;1.70;;
44218;SDS011;29889;52.034;5.570;2023-02-28T01:30:24;2.72;;;2.00;;
44218;SDS011;29889;52.034;5.570;2023-02-28T01:30:55;3.47;;;2.03;;
44218;SDS011;29889;52.034;5.570;2023-02-28T01:31:26;3.85;;;2.35;;
44218;SDS011;29889;52.034;5.570;2023-02-28T01:31:57;2.83;;;1.90;;
44218;SDS011;29889;52.034;5.570;2023-02-28T01:32:29;4.13;;;2.00;;
44218;SDS011;29889;52.034;5.570;2023-02-28T01:33:00;2.83;;;1.88;;
44218;SDS011;29889;52.034;5.570;2023-02-28T01:33:31;3.72;;;2.05;;
44218;SDS011;29889;52.034;5.570;2023-02-28T01:34:02;2.40;;;1.52;;
44218;SDS011;29889;52.034;5.570;2023-02-28T01:34:34;2.55;;;1.85;;
44218;SDS011;29889;52.034;5.570;2023-02-28T01:35:05;4.20;;;1.88;;
44218;SDS011;29889;52.034;5.570;2023-02-28T01:35:36;2.65;;;1.85;;
44218;SDS011;29889;52.034;5.570;2023-02-28T01:36:09;2.55;;;2.10;;
44218;SDS011;29889;52.034;5.570;2023-02-28T01:36:41;2.67;;;1.70;;
44218;SDS011;29889;52.034;5.570;2023-02-28T01:37:12;2.60;;;1.65;;
44218;SDS011;29889;52.034;5.570;2023-02-28T01:37:43;3.00;;;1.95;;
44218;SDS011;29889;52.034;5.570;2023-02-28T01:38:14;2.92;;;1.70;;
44218;SDS011;29889;52.034;5.570;2023-02-28T01:38:45;2.25;;;1.65;;
44218;SDS011;29889;52.034;5.570;2023-02-28T01:39:16;3.08;;;1.70;;
44218;SDS011;29889;52.034;5.570;2023-02-28T01:39:47;2.85;;;1.83;;
44218;SDS011;29889;52.034;5.570;2023-02-28T01:40:18;3.55;;;2.20;;
44218;SDS011;29889;52.034;5.570;2023-02-28T01:40:50;2.38;;;1.52;;
44218;SDS011;29889;52.034;5.570;2023-02-28T01:41:25;3.60;;;2.00;;
44218;SDS011;29889;52.034;5.570;2023-02-28T01:41:57;4.18;;;2.00;;
44218;SDS011;29889;52.034;5.570;2023-02-28T01:42:28;3.10;;;1.90;;
44218;SDS011;29889;52.034;5.570;2023-02-28T01:42:59;3.17;;;1.98;;
44218;SDS011;29889;52.034;5.570;2023-02-28T01:43:32;2.78;;;1.75;;
44218;SDS011;29889;52.034;5.570;2023-02-28T01:44:07;3.33;;;2.00;;
44218;SDS011;29889;52.034;5.570;2023-02-28T01:45:09;2.50;;;1.70;;
44218;SDS011;29889;52.034;5.570;2023-02-28T01:45:47;2.72;;;1.75;;
44218;SDS011;29889;52.034;5.570;2023-02-28T01:46:18;3.22;;;1.75;;
44218;SDS011;29889;52.034;5.570;2023-02-28T01:46:49;2.00;;;1.60;;
44218;SDS011;29889;52.034;5.570;2023-02-28T01:47:20;2.13;;;1.48;;
44218;SDS011;29889;52.034;5.570;2023-02-28T01:47:52;2.00;;;1.80;;
44218;SDS011;29889;52.034;5.570;2023-02-28T01:48:25;2.90;;;1.92;;
44218;SDS011;29889;52.034;5.570;2023-02-28T01:48:59;3.15;;;1.67;;
44218;SDS011;29889;52.034;5.570;2023-02-28T01:49:31;2.17;;;1.70;;
44218;SDS011;29889;52.034;5.570;2023-02-28T01:50:04;3.63;;;2.10;;
44218;SDS011;29889;52.034;5.570;2023-02-28T01:50:37;2.17;;;1.67;;
44218;SDS011;29889;52.034;5.570;2023-02-28T01:51:11;2.50;;;1.88;;
44218;SDS011;29889;52.034;5.570;2023-02-28T01:51:44;2.13;;;1.60;;
44218;SDS011;29889;52.034;5.570;2023-02-28T01:52:20;3.65;;;1.70;;
44218;SDS011;29889;52.034;5.570;2023-02-28T01:52:52;2.60;;;1.80;;
44218;SDS011;29889;52.034;5.570;2023-02-28T01:53:44;3.00;;;2.00;;
44218;SDS011;29889;52.034;5.570;2023-02-28T01:54:17;2.80;;;1.80;;
44218;SDS011;29889;52.034;5.570;2023-02-28T01:54:50;2.50;;;1.88;;
44218;SDS011;29889;52.034;5.570;2023-02-28T01:55:22;2.00;;;1.60;;
44218;SDS011;29889;52.034;5.570;2023-02-28T01:55:53;2.33;;;1.80;;
44218;SDS011;29889;52.034;5.570;2023-02-28T01:56:26;2.15;;;1.60;;
44218;SDS011;29889;52.034;5.570;2023-02-28T01:56:59;2.92;;;1.55;;
44218;SDS011;29889;52.034;5.570;2023-02-28T01:57:35;2.95;;;1.80;;
44218;SDS011;29889;52.034;5.570;2023-02-28T01:58:07;2.80;;;1.70;;
44218;SDS011;29889;52.034;5.570;2023-02-28T01:58:39;3.75;;;2.25;;
44218;SDS011;29889;52.034;5.570;2023-02-28T01:59:10;3.47;;;1.70;;
44218;SDS011;29889;52.034;5.570;2023-02-28T01:59:43;3.67;;;1.92;;
44218;SDS011;29889;52.034;5.570;2023-02-28T02:00:17;2.92;;;1.73;;
44218;SDS011;29889;52.034;5.570;2023-02-28T02:00:48;2.03;;;1.50;;
44218;SDS011;29889;52.034;5.570;2023-02-28T02:01:20;4.07;;;2.00;;
44218;SDS011;29889;52.034;5.570;2023-02-28T02:01:51;3.00;;;1.83;;
44218;SDS011;29889;52.034;5.570;2023-02-28T02:02:23;2.05;;;1.67;;
44218;SDS011;29889;52.034;5.570;2023-02-28T02:03:06;3.10;;;2.00;;
44218;SDS011;29889;52.034;5.570;2023-02-28T02:03:37;2.25;;;1.50;;
44218;SDS011;29889;52.034;5.570;2023-02-28T02:04:08;2.78;;;1.85;;
44218;SDS011;29889;52.034;5.570;2023-02-28T02:04:40;1.65;;;1.50;;
44218;SDS011;29889;52.034;5.570;2023-02-28T02:05:14;3.30;;;2.33;;
44218;SDS011;29889;52.034;5.570;2023-02-28T02:05:47;3.33;;;1.95;;
44218;SDS011;29889;52.034;5.570;2023-02-28T02:06:18;3.03;;;1.77;;
44218;SDS011;29889;52.034;5.570;2023-02-28T02:06:49;3.78;;;2.00;;
44218;SDS011;29889;52.034;5.570;2023-02-28T02:07:20;2.63;;;1.70;;
44218;SDS011;29889;52.034;5.570;2023-02-28T02:07:55;2.33;;;1.70;;
44218;SDS011;29889;52.034;5.570;2023-02-28T02:08:28;2.33;;;1.90;;
44218;SDS011;29889;52.034;5.570;2023-02-28T02:08:59;3.90;;;2.10;;
44218;SDS011;29889;52.034;5.570;2023-02-28T02:09:30;2.85;;;1.88;;
44218;SDS011;29889;52.034;5.570;2023-02-28T02:10:03;4.22;;;1.90;;
44218;SDS011;29889;52.034;5.570;2023-02-28T02:10:45;2.33;;;1.63;;
44218;SDS011;29889;52.034;5.570;2023-02-28T02:11:19;2.97;;;1.65;;
44218;SDS011;29889;52.034;5.570;2023-02-28T02:11:51;4.63;;;1.95;;
44218;SDS011;29889;52.034;5.570;2023-02-28T02:13:14;2.65;;;1.77;;
44218;SDS011;29889;52.034;5.570;2023-02-28T02:15:09;2.50;;;1.60;;
44218;SDS011;29889;52.034;5.570;2023-02-28T02:16:39;2.30;;;1.87;;
44218;SDS011;29889;52.034;5.570;2023-02-28T02:17:08;2.13;;;1.55;;
44218;SDS011;29889;52.034;5.570;2023-02-28T02:17:44;3.00;;;2.22;;
44218;SDS011;29889;52.034;5.570;2023-02-28T02:18:25;3.70;;;1.90;;
44218;SDS011;29889;52.034;5.570;2023-02-28T02:19:05;2.55;;;1.70;;
44218;SDS011;29889;52.034;5.570;2023-02-28T02:20:32;1.80;;;1.50;;
44218;SDS011;29889;52.034;5.570;2023-02-28T02:21:13;2.78;;;2.00;;
44218;SDS011;29889;52.034;5.570;2023-02-28T02:25:45;3.30;;;1.83;;
44218;SDS011;29889;52.034;5.570;2023-02-28T02:29:03;2.35;;;1.55;;
44218;SDS011;29889;52.034;5.570;2023-02-28T02:29:40;3.50;;;1.85;;
44218;SDS011;29889;52.034;5.570;2023-02-28T02:30:22;2.72;;;1.63;;
44218;SDS011;29889;52.034;5.570;2023-02-28T02:30:59;3.13;;;1.40;;
44218;SDS011;29889;52.034;5.570;2023-02-28T02:32:16;3.47;;;1.60;;
44218;SDS011;29889;52.034;5.570;2023-02-28T02:35:43;3.00;;;1.67;;
44218;SDS011;29889;52.034;5.570;2023-02-28T02:36:22;2.80;;;1.75;;
44218;SDS011;29889;52.034;5.570;2023-02-28T02:37:48;3.03;;;1.75;;
44218;SDS011;29889;52.034;5.570;2023-02-28T02:39:45;2.58;;;1.70;;
44218;SDS011;29889;52.034;5.570;2023-02-28T02:40:22;3.75;;;1.95;;
44218;SDS011;29889;52.034;5.570;2023-02-28T02:41:17;2.95;;;2.08;;
44218;SDS011;29889;52.034;5.570;2023-02-28T02:41:46;2.95;;;1.40;;
44218;SDS011;29889;52.034;5.570;2023-02-28T02:42:29;2.00;;;1.60;;
44218;SDS011;29889;52.034;5.570;2023-02-28T02:43:04;2.10;;;1.60;;
44218;SDS011;29889;52.034;5.570;2023-02-28T02:43:39;1.95;;;1.40;;
44218;SDS011;29889;52.034;5.570;2023-02-28T02:44:13;4.60;;;1.92;;
44218;SDS011;29889;52.034;5.570;2023-02-28T02:44:47;2.72;;;1.80;;
44218;SDS011;29889;52.034;5.570;2023-02-28T02:45:21;1.48;;;1.33;;
44218;SDS011;29889;52.034;5.570;2023-02-28T02:45:56;2.90;;;1.60;;
44218;SDS011;29889;52.034;5.570;2023-02-28T02:46:37;2.67;;;1.58;;
44218;SDS011;29889;52.034;5.570;2023-02-28T02:47:12;2.22;;;1.75;;
44218;SDS011;29889;52.034;5.570;2023-02-28T02:47:45;1.83;;;1.40;;
44218;SDS011;29889;52.034;5.570;2023-02-28T02:48:17;2.58;;;1.73;;
44218;SDS011;29889;52.034;5.570;2023-02-28T02:48:49;2.17;;;1.52;;
44218;SDS011;29889;52.034;5.570;2023-02-28T02:49:26;3.53;;;1.80;;
44218;SDS011;29889;52.034;5.570;2023-02-28T02:49:59;2.42;;;1.67;;
44218;SDS011;29889;52.034;5.570;2023-02-28T02:50:38;2.53;;;1.85;;
44218;SDS011;29889;52.034;5.570;2023-02-28T02:51:11;3.03;;;1.70;;
44218;SDS011;29889;52.034;5.570;2023-02-28T02:51:44;2.65;;;1.80;;
44218;SDS011;29889;52.034;5.570;2023-02-28T02:52:17;3.13;;;1.85;;
44218;SDS011;29889;52.034;5.570;2023-02-28T02:52:51;3.35;;;1.65;;
44218;SDS011;29889;52.034;5.570;2023-02-28T02:53:30;2.45;;;1.80;;
44218;SDS011;29889;52.034;5.570;2023-02-28T02:54:46;5.63;;;2.25;;
44218;SDS011;29889;52.034;5.570;2023-02-28T02:55:19;2.42;;;1.58;;
44218;SDS011;29889;52.034;5.570;2023-02-28T02:55:51;3.08;;;1.73;;
44218;SDS011;29889;52.034;5.570;2023-02-28T02:56:25;2.75;;;1.63;;
44218;SDS011;29889;52.034;5.570;2023-02-28T02:56:58;2.45;;;1.73;;
44218;SDS011;29889;52.034;5.570;2023-02-28T02:57:30;2.33;;;1.67;;
44218;SDS011;29889;52.034;5.570;2023-02-28T02:58:03;3.88;;;2.10;;
44218;SDS011;29889;52.034;5.570;2023-02-28T02:58:36;1.92;;;1.67;;
44218;SDS011;29889;52.034;5.570;2023-02-28T02:59:12;2.63;;;1.90;;
44218;SDS011;29889;52.034;5.570;2023-02-28T02:59:44;2.40;;;1.83;;
44218;SDS011;29889;52.034;5.570;2023-02-28T03:00:16;2.95;;;1.80;;
44218;SDS011;29889;52.034;5.570;2023-02-28T03:00:48;2.55;;;1.80;;
44218;SDS011;29889;52.034;5.570;2023-02-28T03:01:21;2.22;;;1.92;;
44218;SDS011;29889;52.034;5.570;2023-02-28T03:01:58;2.67;;;1.77;;
44218;SDS011;29889;52.034;5.570;2023-02-28T03:02:30;2.35;;;1.48;;
44218;SDS011;29889;52.034;5.570;2023-02-28T03:03:04;2.05;;;1.60;;
44218;SDS011;29889;52.034;5.570;2023-02-28T03:03:35;2.47;;;1.90;;
44218;SDS011;29889;52.034;5.570;2023-02-28T03:04:14;3.10;;;2.20;;
44218;SDS011;29889;52.034;5.570;2023-02-28T03:04:48;2.45;;;1.70;;
44218;SDS011;29889;52.034;5.570;2023-02-28T03:05:26;2.30;;;1.77;;
44218;SDS011;29889;52.034;5.570;2023-02-28T03:05:57;3.03;;;1.80;;
44218;SDS011;29889;52.034;5.570;2023-02-28T03:06:29;2.83;;;1.73;;
44218;SDS011;29889;52.034;5.570;2023-02-28T03:07:00;2.65;;;1.98;;
44218;SDS011;29889;52.034;5.570;2023-02-28T03:07:31;2.75;;;1.65;;
44218;SDS011;29889;52.034;5.570;2023-02-28T03:08:04;2.75;;;1.85;;
44218;SDS011;29889;52.034;5.570;2023-02-28T03:08:36;2.45;;;1.67;;
44218;SDS011;29889;52.034;5.570;2023-02-28T03:09:08;4.57;;;2.15;;
44218;SDS011;29889;52.034;5.570;2023-02-28T03:09:39;2.15;;;1.58;;
44218;SDS011;29889;52.034;5.570;2023-02-28T03:10:30;1.80;;;1.48;;
44218;SDS011;29889;52.034;5.570;2023-02-28T03:11:05;3.05;;;1.42;;
44218;SDS011;29889;52.034;5.570;2023-02-28T03:11:39;2.50;;;1.63;;
44218;SDS011;29889;52.034;5.570;2023-02-28T03:12:11;3.38;;;2.10;;
44218;SDS011;29889;52.034;5.570;2023-02-28T03:12:47;3.08;;;1.80;;
44218;SDS011;29889;52.034;5.570;2023-02-28T03:16:04;4.00;;;1.92;;
44218;SDS011;29889;52.034;5.570;2023-02-28T03:17:11;1.48;;;1.38;;
44218;SDS011;29889;52.034;5.570;2023-02-28T03:17:47;2.67;;;1.60;;
44218;SDS011;29889;52.034;5.570;2023-02-28T03:20:04;2.22;;;1.70;;
44218;SDS011;29889;52.034;5.570;2023-02-28T03:20:42;2.58;;;1.58;;
44218;SDS011;29889;52.034;5.570;2023-02-28T03:21:21;3.78;;;1.60;;
44218;SDS011;29889;52.034;5.570;2023-02-28T03:22:32;3.57;;;1.87;;
44218;SDS011;29889;52.034;5.570;2023-02-28T03:24:26;2.22;;;1.70;;
44218;SDS011;29889;52.034;5.570;2023-02-28T03:26:24;4.07;;;1.80;;
44218;SDS011;29889;52.034;5.570;2023-02-28T03:26:58;4.20;;;2.05;;
44218;SDS011;29889;52.034;5.570;2023-02-28T03:27:37;2.97;;;1.85;;
44218;SDS011;29889;52.034;5.570;2023-02-28T03:28:17;3.13;;;2.08;;
44218;SDS011;29889;52.034;5.570;2023-02-28T03:29:43;2.65;;;1.67;;
44218;SDS011;29889;52.034;5.570;2023-02-28T03:30:51;2.60;;;1.30;;
44218;SDS011;29889;52.034;5.570;2023-02-28T03:31:47;2.60;;;1.73;;
44218;SDS011;29889;52.034;5.570;2023-02-28T03:33:13;2.15;;;1.45;;
44218;SDS011;29889;52.034;5.570;2023-02-28T03:35:30;3.13;;;2.10;;
44218;SDS011;29889;52.034;5.570;2023-02-28T03:36:00;3.45;;;1.88;;
44218;SDS011;29889;52.034;5.570;2023-02-28T03:36:35;3.20;;;2.33;;
44218;SDS011;29889;52.034;5.570;2023-02-28T03:37:12;2.63;;;1.58;;
44218;SDS011;29889;52.034;5.570;2023-02-28T03:37:45;2.78;;;1.98;;
44218;SDS011;29889;52.034;5.570;2023-02-28T03:39:07;2.95;;;1.83;;
44218;SDS011;29889;52.034;5.570;2023-02-28T03:39:46;3.25;;;1.70;;
44218;SDS011;29889;52.034;5.570;2023-02-28T03:40:22;2.63;;;2.08;;
44218;SDS011;29889;52.034;5.570;2023-02-28T03:41:01;2.60;;;1.90;;
44218;SDS011;29889;52.034;5.570;2023-02-28T03:41:36;2.20;;;1.50;;
44218;SDS011;29889;52.034;5.570;2023-02-28T03:42:11;2.85;;;1.50;;
44218;SDS011;29889;52.034;5.570;2023-02-28T03:42:44;2.63;;;1.60;;
44218;SDS011;29889;52.034;5.570;2023-02-28T03:43:19;3.97;;;1.73;;
44218;SDS011;29889;52.034;5.570;2023-02-28T03:43:56;2.25;;;1.60;;
44218;SDS011;29889;52.034;5.570;2023-02-28T03:44:30;2.10;;;1.70;;
44218;SDS011;29889;52.034;5.570;2023-02-28T03:45:13;3.22;;;1.77;;
44218;SDS011;29889;52.034;5.570;2023-02-28T03:45:46;1.98;;;1.50;;
44218;SDS011;29889;52.034;5.570;2023-02-28T03:46:20;4.65;;;1.92;;
44218;SDS011;29889;52.034;5.570;2023-02-28T03:46:54;4.00;;;1.98;;
44218;SDS011;29889;52.034;5.570;2023-02-28T03:47:28;3.83;;;1.73;;
44218;SDS011;29889;52.034;5.570;2023-02-28T03:48:02;2.55;;;1.98;;
44218;SDS011;29889;52.034;5.570;2023-02-28T03:48:36;2.78;;;1.65;;